createdAt,value
2023-06-26T00:00:29.407Z,18.11
2023-06-26T00:01:29.443Z,18.01
2023-06-26T00:02:29.433Z,17.97
2023-06-26T00:03:29.441Z,17.98
2023-06-26T00:04:29.365Z,17.92
2023-06-26T00:05:29.352Z,18.04
2023-06-26T00:06:29.341Z,18.03
2023-06-26T00:07:29.434Z,18.05
2023-06-26T00:08:29.365Z,18.10
2023-06-26T00:09:29.328Z,18.15
2023-06-26T00:10:29.338Z,18.03
2023-06-26T00:11:29.315Z,18.04
2023-06-26T00:12:29.320Z,18.01
2023-06-26T00:13:29.300Z,18.08
2023-06-26T00:14:29.282Z,18.07
2023-06-26T00:15:29.270Z,18.04
2023-06-26T00:16:29.293Z,18.15
2023-06-26T00:17:29.366Z,18.10
2023-06-26T00:18:29.261Z,18.08
2023-06-26T00:19:29.263Z,17.95
2023-06-26T00:20:29.259Z,18.03
2023-06-26T00:21:29.329Z,17.82
2023-06-26T00:22:29.219Z,17.70
2023-06-26T00:23:29.217Z,17.70
2023-06-26T00:24:29.209Z,17.63
2023-06-26T00:25:29.196Z,17.64
2023-06-26T00:26:29.216Z,17.49
2023-06-26T00:27:29.190Z,17.45
2023-06-26T00:28:29.179Z,17.44
2023-06-26T00:29:29.169Z,17.46
2023-06-26T00:30:29.200Z,17.54
2023-06-26T00:31:29.213Z,17.57
2023-06-26T00:32:29.159Z,17.63
2023-06-26T00:33:29.136Z,17.57
2023-06-26T00:34:29.129Z,17.65
2023-06-26T00:35:29.186Z,17.68
2023-06-26T00:36:29.107Z,17.64
2023-06-26T00:37:29.109Z,17.71
2023-06-26T00:38:29.100Z,17.65
2023-06-26T00:39:29.094Z,17.63
2023-06-26T00:40:29.107Z,17.74
2023-06-26T00:41:29.087Z,17.63
2023-06-26T00:42:29.065Z,17.67
2023-06-26T00:43:29.058Z,17.64
2023-06-26T00:44:29.056Z,17.63
2023-06-26T00:45:38.153Z,17.48
2023-06-26T00:46:31.036Z,17.46
2023-06-26T00:47:29.050Z,17.34
2023-06-26T00:48:29.025Z,17.31
2023-06-26T00:49:29.042Z,17.23
2023-06-26T00:50:29.029Z,17.19
2023-06-26T00:51:28.993Z,16.96
2023-06-26T00:52:29.018Z,16.89
2023-06-26T00:53:29.002Z,16.83
2023-06-26T00:54:29.002Z,16.74
2023-06-26T00:55:28.965Z,16.83
2023-06-26T00:56:28.962Z,16.78
2023-06-26T00:57:28.956Z,16.84
2023-06-26T00:58:28.952Z,16.94
2023-06-26T00:59:28.967Z,16.91
2023-06-26T01:00:28.937Z,16.94
2023-06-26T01:01:28.916Z,16.94
2023-06-26T01:02:28.998Z,16.94
2023-06-26T01:03:29.008Z,16.86
2023-06-26T01:04:28.926Z,16.89
2023-06-26T01:05:28.901Z,16.84
2023-06-26T01:06:28.880Z,16.97
2023-06-26T01:07:28.981Z,16.89
2023-06-26T01:08:28.899Z,16.78
2023-06-26T01:09:28.864Z,16.79
2023-06-26T01:10:29.193Z,16.78
2023-06-26T01:11:28.847Z,16.74
2023-06-26T01:12:28.839Z,16.86
2023-06-26T01:13:28.867Z,16.93
2023-06-26T01:14:28.815Z,16.89
2023-06-26T01:15:28.814Z,16.86
2023-06-26T01:16:28.815Z,16.91
2023-06-26T01:17:28.834Z,16.86
2023-06-26T01:18:28.829Z,16.76
2023-06-26T01:19:28.791Z,16.74
2023-06-26T01:20:28.795Z,16.65
2023-06-26T01:21:28.818Z,16.74
2023-06-26T01:22:28.796Z,16.74
2023-06-26T01:23:28.774Z,16.64
2023-06-26T01:24:28.878Z,16.58
2023-06-26T01:25:28.757Z,16.56
2023-06-26T01:26:28.725Z,16.58
2023-06-26T01:27:28.766Z,16.56
2023-06-26T01:28:28.710Z,16.61
2023-06-26T01:29:28.717Z,16.50
2023-06-26T01:30:28.698Z,16.58
2023-06-26T01:31:28.740Z,16.50
2023-06-26T01:32:28.754Z,16.56
2023-06-26T01:33:28.684Z,16.57
2023-06-26T01:34:28.663Z,16.60
2023-06-26T01:35:28.657Z,16.53
2023-06-26T01:36:28.679Z,16.69
2023-06-26T01:37:28.684Z,16.65
2023-06-26T01:38:28.655Z,16.61
2023-06-26T01:39:28.631Z,16.60
2023-06-26T01:40:28.620Z,16.58
2023-06-26T01:41:28.640Z,16.64
2023-06-26T01:42:28.604Z,16.60
2023-06-26T01:43:28.604Z,16.53
2023-06-26T01:44:28.605Z,16.53
2023-06-26T01:45:28.582Z,16.46
2023-06-26T01:46:28.679Z,16.51
2023-06-26T01:47:28.574Z,16.47
2023-06-26T01:48:28.562Z,16.57
2023-06-26T01:49:28.558Z,16.41
2023-06-26T01:50:28.570Z,16.47
2023-06-26T01:51:28.610Z,16.51
2023-06-26T01:52:28.526Z,16.57
2023-06-26T01:53:28.531Z,16.60
2023-06-26T01:54:28.514Z,16.49
2023-06-26T01:55:28.531Z,16.61
2023-06-26T01:56:28.527Z,16.69
2023-06-26T01:57:28.494Z,16.68
2023-06-26T01:58:28.512Z,16.61
2023-06-26T01:59:28.476Z,16.51
2023-06-26T02:00:28.502Z,16.47
2023-06-26T02:01:28.487Z,16.61
2023-06-26T02:02:28.529Z,16.54
2023-06-26T02:03:28.514Z,16.56
2023-06-26T02:04:28.454Z,16.57
2023-06-26T02:05:28.468Z,16.66
2023-06-26T02:06:28.432Z,16.58
2023-06-26T02:07:28.532Z,16.53
2023-06-26T02:08:28.417Z,16.41
2023-06-26T02:09:28.437Z,16.46
2023-06-26T02:10:28.417Z,16.36
2023-06-26T02:11:28.388Z,16.32
2023-06-26T02:12:28.391Z,16.38
2023-06-26T02:13:28.373Z,16.42
2023-06-26T02:14:28.390Z,16.35
2023-06-26T02:15:28.396Z,16.35
2023-06-26T02:16:28.365Z,16.43
2023-06-26T02:17:28.393Z,16.43
2023-06-26T02:18:28.327Z,16.41
2023-06-26T02:19:28.380Z,16.41
2023-06-26T02:20:28.354Z,16.47
2023-06-26T02:21:28.303Z,16.35
2023-06-26T02:22:28.317Z,16.39
2023-06-26T02:23:28.321Z,16.38
2023-06-26T02:24:28.307Z,16.41
2023-06-26T02:25:28.277Z,16.41
2023-06-26T02:26:28.266Z,16.50
2023-06-26T02:27:28.268Z,16.53
2023-06-26T02:28:28.284Z,16.53
2023-06-26T02:29:28.235Z,16.53
2023-06-26T02:30:28.253Z,16.47
2023-06-26T02:31:28.242Z,16.42
2023-06-26T02:32:28.236Z,16.39
2023-06-26T02:33:28.254Z,16.41
2023-06-26T02:34:28.226Z,16.42
2023-06-26T02:35:28.213Z,16.33
2023-06-26T02:36:28.195Z,16.31
2023-06-26T02:37:28.201Z,16.32
2023-06-26T02:38:28.216Z,16.15
2023-06-26T02:39:28.167Z,16.16
2023-06-26T02:40:28.164Z,16.20
2023-06-26T02:41:28.147Z,16.20
2023-06-26T02:42:28.208Z,16.17
2023-06-26T02:43:28.138Z,16.01
2023-06-26T02:44:28.130Z,15.98
2023-06-26T02:45:28.122Z,15.91
2023-06-26T02:46:28.155Z,15.90
2023-06-26T02:47:28.154Z,16.05
2023-06-26T02:48:28.094Z,16.00
2023-06-26T02:49:28.085Z,16.05
2023-06-26T02:50:28.092Z,16.10
2023-06-26T02:51:28.098Z,15.98
2023-06-26T02:52:28.095Z,16.04
2023-06-26T02:53:28.072Z,16.01
2023-06-26T02:54:28.052Z,16.12
2023-06-26T02:55:28.035Z,16.01
2023-06-26T02:56:28.092Z,15.92
2023-06-26T02:57:28.036Z,15.91
2023-06-26T02:58:28.033Z,15.98
2023-06-26T02:59:28.005Z,15.94
2023-06-26T03:00:28.023Z,15.98
2023-06-26T03:01:28.203Z,16.09
2023-06-26T03:02:28.036Z,16.01
2023-06-26T03:03:27.974Z,16.13
2023-06-26T03:04:28.018Z,16.16
2023-06-26T03:05:27.989Z,16.12
2023-06-26T03:06:27.985Z,16.24
2023-06-26T03:07:28.012Z,16.17
2023-06-26T03:08:27.972Z,16.21
2023-06-26T03:09:27.940Z,16.23
2023-06-26T03:10:27.979Z,16.28
2023-06-26T03:11:27.940Z,16.17
2023-06-26T03:12:27.926Z,16.20
2023-06-26T03:13:27.915Z,16.28
2023-06-26T03:14:27.908Z,16.24
2023-06-26T03:15:27.919Z,16.28
2023-06-26T03:16:27.919Z,16.17
2023-06-26T03:17:27.889Z,16.15
2023-06-26T03:18:27.867Z,16.26
2023-06-26T03:19:27.877Z,16.17
2023-06-26T03:20:27.876Z,16.20
2023-06-26T03:21:27.849Z,16.13
2023-06-26T03:22:27.866Z,16.13
2023-06-26T03:23:27.828Z,16.05
2023-06-26T03:24:27.848Z,16.04
2023-06-26T03:25:27.858Z,16.05
2023-06-26T03:26:27.807Z,16.00
2023-06-26T03:27:27.800Z,16.09
2023-06-26T03:28:27.808Z,15.98
2023-06-26T03:29:27.810Z,15.98
2023-06-26T03:30:27.803Z,16.08
2023-06-26T03:31:27.770Z,16.20
2023-06-26T03:32:27.772Z,16.10
2023-06-26T03:33:28.799Z,16.20
2023-06-26T03:34:27.775Z,16.13
2023-06-26T03:35:27.728Z,16.28
2023-06-26T03:36:27.735Z,16.24
2023-06-26T03:37:27.719Z,16.23
2023-06-26T03:38:27.784Z,16.24
2023-06-26T03:39:27.701Z,16.20
2023-06-26T03:40:27.708Z,16.24
2023-06-26T03:41:27.694Z,16.20
2023-06-26T03:42:27.678Z,16.20
2023-06-26T03:43:27.706Z,16.26
2023-06-26T03:44:27.710Z,16.26
2023-06-26T03:45:27.669Z,16.28
2023-06-26T03:46:27.724Z,16.28
2023-06-26T03:47:27.672Z,16.38
2023-06-26T03:48:27.702Z,16.39
2023-06-26T03:49:27.635Z,16.47
2023-06-26T03:50:27.650Z,16.39
2023-06-26T03:51:27.617Z,16.72
2023-06-26T03:52:27.651Z,16.89
2023-06-26T03:53:27.601Z,17.08
2023-06-26T03:54:27.617Z,17.20
2023-06-26T03:55:27.593Z,17.54
2023-06-26T03:56:27.585Z,17.72
2023-06-26T03:57:28.595Z,17.89
2023-06-26T03:58:27.584Z,17.97
2023-06-26T03:59:27.567Z,18.07
2023-06-26T04:00:27.555Z,18.15
2023-06-26T04:01:27.626Z,17.90
2023-06-26T04:02:27.624Z,17.86
2023-06-26T04:03:27.603Z,17.78
2023-06-26T04:04:27.671Z,17.79
2023-06-26T04:05:27.510Z,17.67
2023-06-26T04:06:27.549Z,17.56
2023-06-26T04:07:27.592Z,17.45
2023-06-26T04:08:27.567Z,17.46
2023-06-26T04:09:27.501Z,17.60
2023-06-26T04:10:27.483Z,17.86
2023-06-26T04:11:27.494Z,18.13
2023-06-26T04:12:27.504Z,18.45
2023-06-26T04:13:27.467Z,18.68
2023-06-26T04:14:27.440Z,18.92
2023-06-26T04:15:27.447Z,19.22
2023-06-26T04:16:27.468Z,19.33
2023-06-26T04:17:27.470Z,19.73
2023-06-26T04:18:27.415Z,19.85
2023-06-26T04:19:27.435Z,19.96
2023-06-26T04:20:27.420Z,19.91
2023-06-26T04:21:27.437Z,20.16
2023-06-26T04:22:27.396Z,20.36
2023-06-26T04:23:27.387Z,20.67
2023-06-26T04:24:27.396Z,20.96
2023-06-26T04:25:27.379Z,21.06
2023-06-26T04:26:27.389Z,21.15
2023-06-26T04:27:27.350Z,21.09
2023-06-26T04:28:27.361Z,21.11
2023-06-26T04:29:27.327Z,21.46
2023-06-26T04:30:27.352Z,21.62
2023-06-26T04:31:27.336Z,21.67
2023-06-26T04:32:27.345Z,21.80
2023-06-26T04:33:27.305Z,21.76
2023-06-26T04:34:27.308Z,21.89
2023-06-26T04:35:27.305Z,21.95
2023-06-26T04:36:27.275Z,21.91
2023-06-26T04:37:27.288Z,21.77
2023-06-26T04:38:27.285Z,21.73
2023-06-26T04:39:27.284Z,21.91
2023-06-26T04:40:27.268Z,21.76
2023-06-26T04:41:27.247Z,22.04
2023-06-26T04:42:27.240Z,22.38
2023-06-26T04:43:27.222Z,22.57
2023-06-26T04:44:27.260Z,22.73
2023-06-26T04:45:27.204Z,22.80
2023-06-26T04:46:27.212Z,22.78
2023-06-26T04:47:27.205Z,22.60
2023-06-26T04:48:27.209Z,22.60
2023-06-26T04:49:27.215Z,22.69
2023-06-26T04:50:27.173Z,22.51
2023-06-26T04:51:27.166Z,22.60
2023-06-26T04:52:27.148Z,22.84
2023-06-26T04:53:27.180Z,22.76
2023-06-26T04:54:27.161Z,22.59
2023-06-26T04:55:27.165Z,22.68
2023-06-26T04:56:27.121Z,22.60
2023-06-26T04:57:27.122Z,22.72
2023-06-26T04:58:27.138Z,22.99
2023-06-26T04:59:27.134Z,23.32
2023-06-26T05:00:27.106Z,23.63
2023-06-26T05:01:27.093Z,23.88
2023-06-26T05:02:27.151Z,24.08
2023-06-26T05:03:27.323Z,23.92
2023-06-26T05:04:27.072Z,23.88
2023-06-26T05:05:27.061Z,23.93
2023-06-26T05:06:27.136Z,23.84
2023-06-26T05:07:27.178Z,23.84
2023-06-26T05:08:27.076Z,23.95
2023-06-26T05:09:27.027Z,24.08
2023-06-26T05:10:27.025Z,24.03
2023-06-26T05:11:27.026Z,24.14
2023-06-26T05:12:27.037Z,24.32
2023-06-26T05:13:27.036Z,24.29
2023-06-26T05:14:26.992Z,24.73
2023-06-26T05:15:26.978Z,24.69
2023-06-26T05:16:27.969Z,24.35
2023-06-26T05:17:27.069Z,24.16
2023-06-26T05:18:26.954Z,24.20
2023-06-26T05:19:26.946Z,24.23
2023-06-26T05:20:26.947Z,24.35
2023-06-26T05:21:26.940Z,24.66
2023-06-26T05:22:26.958Z,25.06
2023-06-26T05:23:26.928Z,25.51
2023-06-26T05:24:26.903Z,25.58
2023-06-26T05:25:26.899Z,25.81
2023-06-26T05:26:26.962Z,25.70
2023-06-26T05:27:26.909Z,25.69
2023-06-26T05:28:26.907Z,25.99
2023-06-26T05:29:26.868Z,26.25
2023-06-26T05:30:26.869Z,26.25
2023-06-26T05:31:26.928Z,26.26
2023-06-26T05:32:26.856Z,26.41
2023-06-26T05:33:26.852Z,26.22
2023-06-26T05:34:26.840Z,26.33
2023-06-26T05:35:26.877Z,26.48
2023-06-26T05:36:26.854Z,26.31
2023-06-26T05:37:26.837Z,26.38
2023-06-26T05:38:26.820Z,26.58
2023-06-26T05:39:26.809Z,26.81
2023-06-26T05:40:26.824Z,26.37
2023-06-26T05:41:26.825Z,25.78
2023-06-26T05:42:26.788Z,25.48
2023-06-26T05:43:28.834Z,25.50
2023-06-26T05:44:27.761Z,25.69
2023-06-26T05:45:26.786Z,25.93
2023-06-26T05:46:26.748Z,26.05
2023-06-26T05:47:26.863Z,26.19
2023-06-26T05:48:26.800Z,26.53
2023-06-26T05:49:26.730Z,26.81
2023-06-26T05:50:26.739Z,26.88
2023-06-26T05:51:26.722Z,26.90
2023-06-26T05:52:26.702Z,26.63
2023-06-26T05:53:26.714Z,26.70
2023-06-26T05:54:26.712Z,26.60
2023-06-26T05:55:26.721Z,26.63
2023-06-26T05:56:26.696Z,26.60
2023-06-26T05:57:26.673Z,26.62
2023-06-26T05:58:26.661Z,26.66
2023-06-26T05:59:26.674Z,26.45
2023-06-26T06:00:26.638Z,26.41
2023-06-26T06:01:26.676Z,26.52
2023-06-26T06:02:26.635Z,26.65
2023-06-26T06:03:26.704Z,26.37
2023-06-26T06:04:26.639Z,26.03
2023-06-26T06:05:26.655Z,25.77
2023-06-26T06:06:26.598Z,25.54
2023-06-26T06:07:26.672Z,25.40
2023-06-26T06:08:26.601Z,25.21
2023-06-26T06:09:26.617Z,25.16
2023-06-26T06:10:26.558Z,25.01
2023-06-26T06:11:26.559Z,24.74
2023-06-26T06:12:26.556Z,24.70
2023-06-26T06:13:26.579Z,24.53
2023-06-26T06:14:26.531Z,24.33
2023-06-26T06:15:27.554Z,24.21
2023-06-26T06:16:26.514Z,24.40
2023-06-26T06:17:26.568Z,24.26
2023-06-26T06:18:26.541Z,24.18
2023-06-26T06:19:26.503Z,23.81
2023-06-26T06:20:26.520Z,23.74
2023-06-26T06:21:26.477Z,23.54
2023-06-26T06:22:26.494Z,23.65
2023-06-26T06:23:26.575Z,23.78
2023-06-26T06:24:26.509Z,23.76
2023-06-26T06:25:26.456Z,23.83
2023-06-26T06:26:26.437Z,23.76
2023-06-26T06:27:26.493Z,23.86
2023-06-26T06:28:26.474Z,23.84
2023-06-26T06:29:26.465Z,23.91
2023-06-26T06:30:42.889Z,23.80
2023-06-26T06:31:28.437Z,24.11
2023-06-26T06:32:26.462Z,23.96
2023-06-26T06:33:26.398Z,24.02
2023-06-26T06:34:26.440Z,24.01
2023-06-26T06:35:28.846Z,23.92
2023-06-26T06:36:27.400Z,23.96
2023-06-26T06:37:26.402Z,24.13
2023-06-26T06:38:26.350Z,24.06
2023-06-26T06:39:26.342Z,24.21
2023-06-26T06:40:26.371Z,24.28
2023-06-26T06:41:26.371Z,24.33
2023-06-26T06:42:26.322Z,24.30
2023-06-26T06:43:26.324Z,24.05
2023-06-26T06:44:26.299Z,24.03
2023-06-26T06:45:26.311Z,24.03
2023-06-26T06:46:26.324Z,24.13
2023-06-26T06:47:26.295Z,24.03
2023-06-26T06:48:26.276Z,24.05
2023-06-26T06:49:26.274Z,24.11
2023-06-26T06:50:26.288Z,24.26
2023-06-26T06:51:26.295Z,24.35
2023-06-26T06:52:26.251Z,24.45
2023-06-26T06:53:26.237Z,24.68
2023-06-26T06:54:26.224Z,24.58
2023-06-26T06:55:26.254Z,24.57
2023-06-26T06:56:26.230Z,24.58
2023-06-26T06:57:26.218Z,24.77
2023-06-26T06:58:26.195Z,24.65
2023-06-26T06:59:26.187Z,24.85
2023-06-26T07:00:26.219Z,24.85
2023-06-26T07:01:26.194Z,24.88
2023-06-26T07:02:26.212Z,24.93
2023-06-26T07:03:26.252Z,24.84
2023-06-26T07:04:26.185Z,24.98
2023-06-26T07:05:26.175Z,25.08
2023-06-26T07:06:26.127Z,25.21
2023-06-26T07:07:26.249Z,25.26
2023-06-26T07:08:26.141Z,25.32
2023-06-26T07:09:26.186Z,25.43
2023-06-26T07:10:26.122Z,25.43
2023-06-26T07:11:26.104Z,25.59
2023-06-26T07:12:26.095Z,25.59
2023-06-26T07:13:26.107Z,25.65
2023-06-26T07:14:26.096Z,25.77
2023-06-26T07:15:27.640Z,25.70
2023-06-26T07:16:26.136Z,25.72
2023-06-26T07:17:26.147Z,25.73
2023-06-26T07:18:26.093Z,25.72
2023-06-26T07:19:26.049Z,25.80
2023-06-26T07:20:26.024Z,25.84
2023-06-26T07:22:00.128Z,25.69
2023-06-26T07:22:26.013Z,25.80
2023-06-26T07:23:26.062Z,25.95
2023-06-26T07:24:25.993Z,26.16
2023-06-26T07:25:25.985Z,26.23
2023-06-26T07:26:40.132Z,26.34
2023-06-26T07:27:28.068Z,26.31
2023-06-26T07:28:26.002Z,26.29
2023-06-26T07:29:25.971Z,26.40
2023-06-26T07:30:25.989Z,26.36
2023-06-26T07:31:25.982Z,26.41
2023-06-26T07:32:26.021Z,26.34
2023-06-26T07:33:25.979Z,26.55
2023-06-26T07:34:25.924Z,26.63
2023-06-26T07:35:25.935Z,26.62
2023-06-26T07:36:25.900Z,26.74
2023-06-26T07:37:25.931Z,26.65
2023-06-26T07:38:25.958Z,26.65
2023-06-26T07:39:25.928Z,26.81
2023-06-26T07:40:25.878Z,26.97
2023-06-26T07:41:25.883Z,26.90
2023-06-26T07:42:25.892Z,26.95
2023-06-26T07:43:25.863Z,26.93
2023-06-26T07:44:25.856Z,26.81
2023-06-26T07:45:27.154Z,26.89
2023-06-26T07:46:26.878Z,26.88
2023-06-26T07:47:25.891Z,26.84
2023-06-26T07:48:40.015Z,26.95
2023-06-26T07:49:25.809Z,26.97
2023-06-26T07:50:25.802Z,27.12
2023-06-26T07:51:25.967Z,27.25
2023-06-26T07:52:25.795Z,27.27
2023-06-26T07:53:25.791Z,27.22
2023-06-26T07:54:25.789Z,27.22
2023-06-26T07:55:25.771Z,27.37
2023-06-26T07:56:25.790Z,27.60
2023-06-26T07:57:25.760Z,27.73
2023-06-26T07:58:25.771Z,27.71
2023-06-26T07:59:25.757Z,27.85
2023-06-26T08:00:25.760Z,28.05
2023-06-26T08:01:25.781Z,27.96
2023-06-26T08:02:25.765Z,27.92
2023-06-26T08:03:34.868Z,27.98
2023-06-26T08:04:27.883Z,28.23
2023-06-26T08:05:25.983Z,28.30
2023-06-26T08:06:25.679Z,28.44
2023-06-26T08:07:25.733Z,28.47
2023-06-26T08:08:25.676Z,28.49
2023-06-26T08:09:25.674Z,28.57
2023-06-26T08:10:25.703Z,28.85
2023-06-26T08:11:25.673Z,29.02
2023-06-26T08:12:25.672Z,29.17
2023-06-26T08:13:25.645Z,29.14
2023-06-26T08:14:25.658Z,28.86
2023-06-26T08:15:25.641Z,28.81
2023-06-26T08:16:25.598Z,28.81
2023-06-26T08:17:26.795Z,28.82
2023-06-26T08:18:25.595Z,28.86
2023-06-26T08:19:25.618Z,28.84
2023-06-26T08:20:25.576Z,28.81
2023-06-26T08:21:25.567Z,28.66
2023-06-26T08:22:25.556Z,28.64
2023-06-26T08:23:27.026Z,28.76
2023-06-26T08:24:26.599Z,28.66
2023-06-26T08:25:25.533Z,28.63
2023-06-26T08:26:25.525Z,28.62
2023-06-26T08:27:25.525Z,28.81
2023-06-26T08:28:25.554Z,28.94
2023-06-26T08:29:25.542Z,28.91
2023-06-26T08:30:25.537Z,28.96
2023-06-26T08:31:25.538Z,29.08
2023-06-26T08:32:25.530Z,28.98
2023-06-26T08:33:25.508Z,28.85
2023-06-26T08:34:25.476Z,28.75
2023-06-26T08:35:25.459Z,28.84
2023-06-26T08:36:25.484Z,28.79
2023-06-26T08:37:25.453Z,28.88
2023-06-26T08:38:25.480Z,28.86
2023-06-26T08:39:25.432Z,29.08
2023-06-26T08:40:25.415Z,29.19
2023-06-26T08:41:25.408Z,29.19
2023-06-26T08:42:25.431Z,29.47
2023-06-26T08:43:25.437Z,29.49
2023-06-26T08:44:25.397Z,29.39
2023-06-26T08:45:25.379Z,29.53
2023-06-26T08:46:25.395Z,29.61
2023-06-26T08:47:25.412Z,29.73
2023-06-26T08:48:25.359Z,29.81
2023-06-26T08:49:25.354Z,29.66
2023-06-26T08:50:26.287Z,29.69
2023-06-26T08:51:25.335Z,29.94
2023-06-26T08:52:25.350Z,29.98
2023-06-26T08:53:25.347Z,30.18
2023-06-26T08:54:25.324Z,30.37
2023-06-26T08:55:25.322Z,30.37
2023-06-26T08:56:25.327Z,30.31
2023-06-26T08:57:25.331Z,30.23
2023-06-26T08:58:25.286Z,30.32
2023-06-26T08:59:25.292Z,30.19
2023-06-26T09:00:25.276Z,30.15
2023-06-26T09:01:25.341Z,30.21
2023-06-26T09:02:25.567Z,30.27
2023-06-26T09:03:25.368Z,30.57
2023-06-26T09:04:25.238Z,30.40
2023-06-26T09:05:25.230Z,30.27
2023-06-26T09:06:25.260Z,30.23
2023-06-26T09:07:25.388Z,30.31
2023-06-26T09:08:25.233Z,30.34
2023-06-26T09:09:25.201Z,30.44
2023-06-26T09:10:25.195Z,30.51
2023-06-26T09:11:25.217Z,30.61
2023-06-26T09:12:25.182Z,30.57
2023-06-26T09:13:29.776Z,30.69
2023-06-26T09:14:27.162Z,30.65
2023-06-26T09:15:25.229Z,30.90
2023-06-26T09:16:25.227Z,31.17
2023-06-26T09:17:25.183Z,31.25
2023-06-26T09:18:25.357Z,31.42
2023-06-26T09:19:25.138Z,31.34
2023-06-26T09:20:25.152Z,31.37
2023-06-26T09:21:25.118Z,31.39
2023-06-26T09:22:25.167Z,31.49
2023-06-26T09:23:25.121Z,31.22
2023-06-26T09:24:25.097Z,31.42
2023-06-26T09:25:26.097Z,31.33
2023-06-26T09:26:25.079Z,31.07
2023-06-26T09:27:25.087Z,31.10
2023-06-26T09:28:25.076Z,31.03
2023-06-26T09:29:25.078Z,30.90
2023-06-26T09:30:25.079Z,31.02
2023-06-26T09:31:39.555Z,31.06
2023-06-26T09:32:27.135Z,31.24
2023-06-26T09:33:25.094Z,31.22
2023-06-26T09:34:25.133Z,31.31
2023-06-26T09:35:25.049Z,31.42
2023-06-26T09:36:24.999Z,31.49
2023-06-26T09:37:25.010Z,31.31
2023-06-26T09:38:24.991Z,31.09
2023-06-26T09:39:25.021Z,31.18
2023-06-26T09:40:24.980Z,31.49
2023-06-26T09:41:25.018Z,31.46
2023-06-26T09:42:24.968Z,31.52
2023-06-26T09:43:24.951Z,31.46
2023-06-26T09:44:24.978Z,31.46
2023-06-26T09:45:24.991Z,31.44
2023-06-26T09:46:25.089Z,31.62
2023-06-26T09:47:25.792Z,31.73
2023-06-26T09:48:25.926Z,31.81
2023-06-26T09:49:25.058Z,32.15
2023-06-26T09:50:24.996Z,32.16
2023-06-26T09:51:25.006Z,32.37
2023-06-26T09:52:24.914Z,32.48
2023-06-26T09:53:25.935Z,32.59
2023-06-26T09:54:24.905Z,32.65
2023-06-26T09:55:24.880Z,32.68
2023-06-26T09:56:24.879Z,32.75
2023-06-26T09:57:24.857Z,32.65
2023-06-26T09:58:24.899Z,32.14
2023-06-26T09:59:24.849Z,31.94
2023-06-26T10:00:25.872Z,32.03
2023-06-26T10:01:24.890Z,31.99
2023-06-26T10:02:25.074Z,31.87
2023-06-26T10:03:24.937Z,31.27
2023-06-26T10:04:24.910Z,31.09
2023-06-26T10:05:24.805Z,31.40
2023-06-26T10:06:24.961Z,31.44
2023-06-26T10:07:24.827Z,31.34
2023-06-26T10:08:25.322Z,31.28
2023-06-26T10:09:26.339Z,31.31
2023-06-26T10:10:24.792Z,31.36
2023-06-26T10:11:24.787Z,31.43
2023-06-26T10:12:24.770Z,31.43
2023-06-26T10:13:24.792Z,31.34
2023-06-26T10:14:24.745Z,30.92
2023-06-26T10:15:24.741Z,30.57
2023-06-26T10:16:24.836Z,30.50
2023-06-26T10:17:24.746Z,30.70
2023-06-26T10:18:24.715Z,31.06
2023-06-26T10:19:24.748Z,31.36
2023-06-26T10:20:24.766Z,31.52
2023-06-26T10:21:24.798Z,31.59
2023-06-26T10:22:24.828Z,31.51
2023-06-26T10:23:24.663Z,31.71
2023-06-26T10:24:24.668Z,31.39
2023-06-26T10:25:24.666Z,31.33
2023-06-26T10:26:24.673Z,31.21
2023-06-26T10:27:24.640Z,31.14
2023-06-26T10:28:24.636Z,31.17
2023-06-26T10:29:24.945Z,31.37
2023-06-26T10:30:24.618Z,31.59
2023-06-26T10:31:24.734Z,31.49
2023-06-26T10:32:24.628Z,31.56
2023-06-26T10:33:24.597Z,31.65
2023-06-26T10:34:24.587Z,31.71
2023-06-26T10:35:24.606Z,31.64
2023-06-26T10:36:24.604Z,31.56
2023-06-26T10:37:24.562Z,31.40
2023-06-26T10:38:24.718Z,31.28
2023-06-26T10:39:24.565Z,31.10
2023-06-26T10:40:24.568Z,31.03
2023-06-26T10:41:24.557Z,31.15
2023-06-26T10:42:24.528Z,31.34
2023-06-26T10:43:24.519Z,31.14
2023-06-26T10:44:24.530Z,31.17
2023-06-26T10:45:24.543Z,31.34
2023-06-26T10:46:24.521Z,31.59
2023-06-26T10:47:24.570Z,31.96
2023-06-26T10:48:24.608Z,31.96
2023-06-26T10:49:24.504Z,31.52
2023-06-26T10:50:24.897Z,31.20
2023-06-26T10:51:24.506Z,31.17
2023-06-26T10:52:24.457Z,31.49
2023-06-26T10:53:24.458Z,31.77
2023-06-26T10:54:25.007Z,31.80
2023-06-26T10:55:24.483Z,31.93
2023-06-26T10:56:24.427Z,31.59
2023-06-26T10:57:24.421Z,31.34
2023-06-26T10:58:24.427Z,31.22
2023-06-26T10:59:24.441Z,31.17
2023-06-26T11:00:24.412Z,31.25
2023-06-26T11:01:24.883Z,30.99
2023-06-26T11:02:24.442Z,30.80
2023-06-26T11:03:24.409Z,30.88
2023-06-26T11:04:24.476Z,30.73
2023-06-26T11:05:24.384Z,30.48
2023-06-26T11:06:24.376Z,30.35
2023-06-26T11:07:24.427Z,30.27
2023-06-26T11:08:24.377Z,29.93
2023-06-26T11:09:24.393Z,29.97
2023-06-26T11:10:24.364Z,30.03
2023-06-26T11:11:24.329Z,30.19
2023-06-26T11:12:24.360Z,30.03
2023-06-26T11:13:24.365Z,29.71
2023-06-26T11:14:24.355Z,29.56
2023-06-26T11:15:24.298Z,29.04
2023-06-26T11:16:24.316Z,29.17
2023-06-26T11:17:24.294Z,29.01
2023-06-26T11:18:24.289Z,28.75
2023-06-26T11:19:24.265Z,28.59
2023-06-26T11:20:24.256Z,28.64
2023-06-26T11:21:24.261Z,28.70
2023-06-26T11:22:24.249Z,28.79
2023-06-26T11:23:24.261Z,28.60
2023-06-26T11:24:24.218Z,28.56
2023-06-26T11:25:24.241Z,28.47
2023-06-26T11:26:24.236Z,28.41
2023-06-26T11:27:24.202Z,28.37
2023-06-26T11:28:24.227Z,28.33
2023-06-26T11:29:24.263Z,28.32
2023-06-26T11:30:24.215Z,28.23
2023-06-26T11:31:24.333Z,28.39
2023-06-26T11:32:24.259Z,28.23
2023-06-26T11:33:24.186Z,28.05
2023-06-26T11:34:24.161Z,28.14
2023-06-26T11:35:24.140Z,28.33
2023-06-26T11:36:24.155Z,28.47
2023-06-26T11:37:24.198Z,28.66
2023-06-26T11:38:24.119Z,28.72
2023-06-26T11:39:24.124Z,28.82
2023-06-26T11:40:24.114Z,28.74
2023-06-26T11:41:24.096Z,28.82
2023-06-26T11:42:24.196Z,28.85
2023-06-26T11:43:24.120Z,28.86
2023-06-26T11:44:24.073Z,28.72
2023-06-26T11:45:24.085Z,28.74
2023-06-26T11:46:24.125Z,28.60
2023-06-26T11:47:24.162Z,28.00
2023-06-26T11:48:24.173Z,27.71
2023-06-26T11:49:24.040Z,27.73
2023-06-26T11:50:24.035Z,27.93
2023-06-26T11:51:24.161Z,27.83
2023-06-26T11:52:24.049Z,27.92
2023-06-26T11:53:24.010Z,28.14
2023-06-26T11:54:23.995Z,28.26
2023-06-26T11:55:23.993Z,28.49
2023-06-26T11:56:24.014Z,28.51
2023-06-26T11:57:23.972Z,28.60
2023-06-26T11:58:24.969Z,28.70
2023-06-26T11:59:23.987Z,28.67
2023-06-26T12:00:23.974Z,28.84
2023-06-26T12:01:23.990Z,28.81
2023-06-26T12:02:25.168Z,28.97
2023-06-26T12:03:24.084Z,29.22
2023-06-26T12:04:24.024Z,29.22
2023-06-26T12:05:23.944Z,29.01
2023-06-26T12:06:23.938Z,28.85
2023-06-26T12:07:24.117Z,28.94
2023-06-26T12:08:23.915Z,28.97
2023-06-26T12:09:23.896Z,28.81
2023-06-26T12:10:23.903Z,28.89
2023-06-26T12:11:23.894Z,28.62
2023-06-26T12:12:23.878Z,28.39
2023-06-26T12:13:23.860Z,28.08
2023-06-26T12:14:23.847Z,28.04
2023-06-26T12:15:23.873Z,28.07
2023-06-26T12:16:23.854Z,28.14
2023-06-26T12:17:23.834Z,28.05
2023-06-26T12:18:23.831Z,28.26
2023-06-26T12:19:23.841Z,28.17
2023-06-26T12:20:23.829Z,28.48
2023-06-26T12:21:23.801Z,28.51
2023-06-26T12:22:23.787Z,28.51
2023-06-26T12:23:23.784Z,28.66
2023-06-26T12:24:23.800Z,28.62
2023-06-26T12:25:23.816Z,28.72
2023-06-26T12:26:23.792Z,28.85
2023-06-26T12:27:23.765Z,28.70
2023-06-26T12:28:23.755Z,28.70
2023-06-26T12:29:23.772Z,28.84
2023-06-26T12:30:23.758Z,28.78
2023-06-26T12:31:23.777Z,28.85
2023-06-26T12:32:23.746Z,28.75
2023-06-26T12:33:23.704Z,28.91
2023-06-26T12:34:23.734Z,28.85
2023-06-26T12:35:23.720Z,28.96
2023-06-26T12:36:23.713Z,29.04
2023-06-26T12:37:23.682Z,29.07
2023-06-26T12:38:23.732Z,29.10
2023-06-26T12:39:23.666Z,28.78
2023-06-26T12:40:23.952Z,28.79
2023-06-26T12:41:23.653Z,28.96
2023-06-26T12:42:23.647Z,29.04
2023-06-26T12:43:23.703Z,28.94
2023-06-26T12:44:23.636Z,28.86
2023-06-26T12:45:32.340Z,28.85
2023-06-26T12:46:25.667Z,29.02
2023-06-26T12:47:23.617Z,29.14
2023-06-26T12:48:23.633Z,29.34
2023-06-26T12:49:31.133Z,29.19
2023-06-26T12:50:25.587Z,29.05
2023-06-26T12:51:23.577Z,29.27
2023-06-26T12:52:23.593Z,29.34